createdAt,value
2023-03-03T00:00:25.493Z,100.00
2023-03-03T00:02:52.202Z,100.00
2023-03-03T00:05:18.658Z,100.00
2023-03-03T00:07:45.582Z,100.00
2023-03-03T00:10:13.341Z,100.00
2023-03-03T00:12:48.653Z,100.00
2023-03-03T00:15:25.810Z,100.00
2023-03-03T00:17:53.380Z,100.00
2023-03-03T00:20:22.883Z,100.00
2023-03-03T00:22:49.592Z,100.00
2023-03-03T00:25:19.318Z,100.00
2023-03-03T00:27:45.815Z,100.00
2023-03-03T00:30:25.127Z,100.00
2023-03-03T00:32:52.494Z,100.00
2023-03-03T00:35:29.067Z,100.00
2023-03-03T00:38:12.361Z,100.00
2023-03-03T00:40:40.970Z,100.00
2023-03-03T00:43:28.974Z,100.00
2023-03-03T00:45:56.735Z,100.00
2023-03-03T00:48:29.304Z,100.00
2023-03-03T00:51:01.121Z,100.00
2023-03-03T00:53:30.340Z,100.00
2023-03-03T00:55:58.068Z,100.00
2023-03-03T00:58:25.623Z,100.00
2023-03-03T01:00:54.384Z,100.00
2023-03-03T01:03:23.880Z,100.00
2023-03-03T01:05:51.257Z,100.00
2023-03-03T01:08:18.392Z,100.00
2023-03-03T01:10:59.931Z,100.00
2023-03-03T01:13:29.864Z,100.00
2023-03-03T01:15:56.707Z,100.00
2023-03-03T01:18:23.432Z,100.00
2023-03-03T01:20:49.863Z,100.00
2023-03-03T01:23:16.559Z,100.00
2023-03-03T01:25:43.392Z,100.00
2023-03-03T01:28:10.303Z,100.00
2023-03-03T01:30:36.923Z,100.00
2023-03-03T01:33:03.862Z,100.00
2023-03-03T01:35:30.587Z,100.00
2023-03-03T01:37:58.120Z,100.00
2023-03-03T01:40:30.984Z,100.00
2023-03-03T01:43:00.134Z,100.00
2023-03-03T01:45:42.589Z,100.00
2023-03-03T01:48:32.963Z,100.00
2023-03-03T01:51:03.661Z,100.00
2023-03-03T01:53:46.293Z,100.00
2023-03-03T01:56:12.770Z,100.00
2023-03-03T01:58:44.442Z,100.00
2023-03-03T02:01:27.493Z,100.00
2023-03-03T02:03:54.731Z,100.00
2023-03-03T02:06:26.543Z,100.00
2023-03-03T02:09:15.541Z,100.00
2023-03-03T02:11:44.499Z,100.00
2023-03-03T02:14:12.502Z,100.00
2023-03-03T02:16:40.698Z,100.00
2023-03-03T02:19:18.622Z,100.00
2023-03-03T02:21:45.212Z,100.00
2023-03-03T02:24:42.759Z,100.00
2023-03-03T02:27:09.388Z,100.00
2023-03-03T02:29:35.782Z,100.00
2023-03-03T02:32:02.997Z,100.00
2023-03-03T02:34:29.689Z,100.00
2023-03-03T02:36:56.205Z,100.00
2023-03-03T02:39:26.903Z,100.00
2023-03-03T02:42:08.197Z,100.00
2023-03-03T02:44:35.237Z,100.00
2023-03-03T02:47:01.849Z,100.00
2023-03-03T02:49:33.925Z,100.00
2023-03-03T02:52:02.178Z,100.00
2023-03-03T02:54:30.647Z,100.00
2023-03-03T02:56:58.151Z,100.00
2023-03-03T02:59:24.603Z,100.00
2023-03-03T03:01:51.617Z,100.00
2023-03-03T03:04:24.208Z,100.00
2023-03-03T03:06:51.615Z,100.00
2023-03-03T03:09:19.394Z,100.00
2023-03-03T03:11:46.427Z,100.00
2023-03-03T03:14:14.219Z,100.00
2023-03-03T03:16:41.258Z,100.00
2023-03-03T03:19:08.885Z,100.00
2023-03-03T03:21:35.561Z,100.00
2023-03-03T03:24:01.920Z,100.00
2023-03-03T03:26:28.288Z,100.00
2023-03-03T03:28:54.927Z,100.00
2023-03-03T03:31:21.731Z,100.00
2023-03-03T03:33:48.780Z,100.00
2023-03-03T03:36:15.148Z,100.00
2023-03-03T03:38:41.934Z,100.00
2023-03-03T03:41:08.312Z,100.00
2023-03-03T03:43:35.384Z,100.00
2023-03-03T03:46:02.340Z,100.00
2023-03-03T03:48:29.566Z,100.00
2023-03-03T03:50:56.001Z,100.00
2023-03-03T03:53:22.484Z,100.00
2023-03-03T03:55:49.209Z,100.00
2023-03-03T03:58:17.516Z,100.00
2023-03-03T04:00:46.100Z,100.00
2023-03-03T04:03:12.967Z,100.00
2023-03-03T04:05:39.405Z,100.00
2023-03-03T04:08:06.452Z,100.00
2023-03-03T04:10:32.795Z,100.00
2023-03-03T04:12:59.303Z,100.00
2023-03-03T04:15:25.894Z,100.00
2023-03-03T04:17:52.444Z,100.00
2023-03-03T04:20:19.243Z,100.00
2023-03-03T04:22:45.736Z,100.00
2023-03-03T04:25:16.104Z,100.00
2023-03-03T04:27:43.866Z,100.00
2023-03-03T04:30:15.583Z,100.00
2023-03-03T04:32:42.839Z,100.00
2023-03-03T04:35:10.207Z,100.00
2023-03-03T04:37:38.209Z,100.00
2023-03-03T04:40:06.995Z,100.00
2023-03-03T04:42:33.837Z,100.00
2023-03-03T04:45:00.674Z,100.00
2023-03-03T04:47:27.169Z,100.00
2023-03-03T04:49:53.633Z,100.00
2023-03-03T04:52:20.154Z,100.00
2023-03-03T04:54:46.838Z,100.00
2023-03-03T04:57:13.281Z,100.00
2023-03-03T04:59:39.998Z,100.00
2023-03-03T05:02:06.497Z,100.00
2023-03-03T05:04:33.580Z,100.00
2023-03-03T05:07:00.105Z,100.00
2023-03-03T05:09:26.514Z,100.00
2023-03-03T05:11:53.228Z,100.00
2023-03-03T05:14:19.775Z,100.00
2023-03-03T05:16:46.370Z,100.00
2023-03-03T05:19:12.880Z,100.00
2023-03-03T05:21:39.554Z,100.00
2023-03-03T05:24:06.090Z,100.00
2023-03-03T05:26:32.778Z,100.00
2023-03-03T05:28:59.114Z,100.00
2023-03-03T05:31:25.952Z,100.00
2023-03-03T05:33:52.895Z,100.00
2023-03-03T05:36:19.431Z,100.00
2023-03-03T05:38:46.058Z,100.00
2023-03-03T05:41:12.864Z,100.00
2023-03-03T05:43:39.297Z,100.00
2023-03-03T05:46:05.678Z,100.00
2023-03-03T05:48:32.578Z,100.00
2023-03-03T05:50:59.493Z,100.00
2023-03-03T05:53:27.316Z,100.00
2023-03-03T05:55:54.256Z,100.00
2023-03-03T05:58:21.228Z,100.00
2023-03-03T06:00:48.288Z,100.00
2023-03-03T06:03:14.782Z,100.00
2023-03-03T06:05:41.237Z,100.00
2023-03-03T06:08:07.727Z,100.00
2023-03-03T06:10:34.236Z,100.00
2023-03-03T06:13:00.776Z,100.00
2023-03-03T06:15:27.463Z,100.00
2023-03-03T06:17:54.057Z,100.00
2023-03-03T06:20:20.989Z,100.00
2023-03-03T06:22:47.534Z,100.00
2023-03-03T06:25:14.563Z,100.00
2023-03-03T06:27:40.968Z,100.00
2023-03-03T06:30:08.214Z,100.00
2023-03-03T06:32:35.013Z,100.00
2023-03-03T06:35:01.491Z,100.00
2023-03-03T06:37:28.110Z,100.00
2023-03-03T06:39:54.837Z,100.00
2023-03-03T06:42:21.336Z,100.00
2023-03-03T06:44:48.040Z,100.00
2023-03-03T06:47:14.734Z,100.00
2023-03-03T06:49:41.197Z,100.00
2023-03-03T06:52:20.604Z,100.00
2023-03-03T06:54:47.172Z,100.00
2023-03-03T06:57:25.471Z,100.00
2023-03-03T06:59:55.178Z,100.00
2023-03-03T07:02:22.425Z,100.00
2023-03-03T07:04:49.128Z,100.00
2023-03-03T07:07:26.439Z,100.00
2023-03-03T07:09:57.257Z,100.00
2023-03-03T07:12:30.252Z,100.00
2023-03-03T07:15:17.890Z,100.00
2023-03-03T07:17:50.520Z,100.00
2023-03-03T07:20:23.688Z,100.00
2023-03-03T07:22:50.702Z,100.00
2023-03-03T07:25:28.532Z,100.00
2023-03-03T07:28:00.214Z,100.00
2023-03-03T07:30:29.179Z,100.00
2023-03-03T07:32:58.710Z,100.00
2023-03-03T07:35:39.442Z,100.00
2023-03-03T07:38:37.456Z,100.00
2023-03-03T07:41:10.174Z,100.00
2023-03-03T07:43:43.709Z,100.00
2023-03-03T07:46:10.434Z,100.00
2023-03-03T07:48:42.547Z,100.00
2023-03-03T07:51:22.454Z,100.00
2023-03-03T07:53:49.219Z,100.00
2023-03-03T07:56:25.996Z,100.00
2023-03-03T07:58:52.457Z,100.00
2023-03-03T08:01:40.797Z,100.00
2023-03-03T08:04:16.496Z,100.00
2023-03-03T08:06:50.097Z,100.00
2023-03-03T08:09:19.635Z,100.00
2023-03-03T08:11:57.642Z,100.00
2023-03-03T08:14:34.045Z,100.00
2023-03-03T08:17:01.970Z,100.00
2023-03-03T08:19:31.642Z,100.00
2023-03-03T08:22:12.663Z,100.00
2023-03-03T08:24:39.063Z,100.00
2023-03-03T08:27:05.566Z,100.00
2023-03-03T08:29:32.811Z,100.00
2023-03-03T08:31:59.346Z,100.00
2023-03-03T08:34:26.375Z,100.00
2023-03-03T08:36:52.813Z,100.00
2023-03-03T08:39:19.573Z,100.00
2023-03-03T08:41:46.020Z,100.00
2023-03-03T08:44:12.440Z,100.00
2023-03-03T08:46:40.337Z,100.00
2023-03-03T08:49:06.832Z,100.00
2023-03-03T08:51:33.365Z,100.00
2023-03-03T08:53:59.836Z,100.00
2023-03-03T08:56:26.286Z,100.00
2023-03-03T08:59:02.121Z,100.00
2023-03-03T09:01:32.913Z,100.00
2023-03-03T09:03:59.809Z,100.00
2023-03-03T09:06:26.341Z,100.00
2023-03-03T09:08:53.362Z,100.00
2023-03-03T09:11:25.197Z,100.00
2023-03-03T09:13:54.449Z,100.00
2023-03-03T09:16:22.302Z,100.00
2023-03-03T09:18:51.223Z,100.00
2023-03-03T09:21:26.388Z,100.00
2023-03-03T09:24:02.192Z,100.00
2023-03-03T09:26:47.529Z,100.00
2023-03-03T09:29:14.221Z,100.00
2023-03-03T09:31:53.470Z,100.00
2023-03-03T09:34:24.434Z,100.00
2023-03-03T09:36:53.241Z,100.00
2023-03-03T09:39:25.159Z,100.00
2023-03-03T09:42:13.204Z,100.00
2023-03-03T09:45:08.918Z,100.00
2023-03-03T09:48:04.612Z,100.00
2023-03-03T09:51:09.108Z,100.00
2023-03-03T09:53:46.937Z,100.00
2023-03-03T09:56:31.340Z,100.00
2023-03-03T09:59:06.380Z,100.00
2023-03-03T10:01:57.663Z,100.00
2023-03-03T10:05:01.585Z,100.00
2023-03-03T10:07:37.398Z,100.00
2023-03-03T10:10:43.224Z,100.00
2023-03-03T10:13:22.604Z,100.00
2023-03-03T10:16:11.150Z,100.00
2023-03-03T10:18:50.215Z,100.00
2023-03-03T10:21:20.383Z,100.00
2023-03-03T10:24:06.135Z,100.00
2023-03-03T10:27:13.814Z,100.00
2023-03-03T10:29:52.453Z,100.00
2023-03-03T10:32:32.974Z,100.00
2023-03-03T10:35:19.271Z,99.58
2023-03-03T10:38:23.067Z,99.67
2023-03-03T10:41:08.126Z,100.00
2023-03-03T10:43:46.047Z,100.00
2023-03-03T10:46:39.426Z,100.00
2023-03-03T10:49:20.100Z,100.00
2023-03-03T10:52:03.289Z,100.00
2023-03-03T10:55:08.643Z,100.00
2023-03-03T10:57:53.696Z,97.76
2023-03-03T11:00:27.738Z,98.05
2023-03-03T11:03:07.185Z,97.18
2023-03-03T11:05:57.838Z,94.85
2023-03-03T11:08:33.775Z,95.56
2023-03-03T11:11:36.959Z,94.35
2023-03-03T11:14:14.170Z,94.88
2023-03-03T11:17:18.289Z,89.67
2023-03-03T11:20:29.430Z,86.92
2023-03-03T11:22:58.887Z,90.38
2023-03-03T11:25:30.615Z,90.24
2023-03-03T11:28:03.666Z,84.91
2023-03-03T11:30:36.258Z,85.21
2023-03-03T11:33:06.174Z,85.41
2023-03-03T11:35:45.685Z,85.02
2023-03-03T11:38:53.773Z,87.25
2023-03-03T11:41:50.688Z,82.26
2023-03-03T11:44:31.533Z,86.82
2023-03-03T11:47:20.003Z,87.11
2023-03-03T11:50:14.128Z,87.41
2023-03-03T11:53:08.270Z,88.26
2023-03-03T11:55:41.584Z,85.51
2023-03-03T11:58:20.956Z,86.29
2023-03-03T12:01:15.304Z,85.87
2023-03-03T12:03:53.603Z,86.02
2023-03-03T12:06:50.695Z,84.36
2023-03-03T12:09:31.010Z,89.39
2023-03-03T12:12:02.390Z,86.86
2023-03-03T12:15:04.175Z,87.48
2023-03-03T12:17:51.076Z,88.54
2023-03-03T12:20:34.990Z,84.28
2023-03-03T12:23:18.815Z,82.64
2023-03-03T12:25:57.259Z,80.51
2023-03-03T12:28:41.196Z,79.71
2023-03-03T12:31:16.869Z,78.09
2023-03-03T12:33:59.229Z,78.68
2023-03-03T12:36:53.817Z,79.95
2023-03-03T12:39:48.417Z,80.33
2023-03-03T12:42:27.070Z,80.47
2023-03-03T12:45:14.967Z,81.60
2023-03-03T12:47:57.376Z,83.67
2023-03-03T12:50:38.878Z,84.38
2023-03-03T12:53:33.238Z,86.81
2023-03-03T12:56:30.545Z,84.33
2023-03-03T12:59:05.812Z,81.06
2023-03-03T13:01:38.435Z,78.80
2023-03-03T13:04:21.938Z,81.13
2023-03-03T13:06:58.944Z,82.85
2023-03-03T13:10:02.447Z,82.53
2023-03-03T13:12:49.596Z,82.19
2023-03-03T13:15:31.675Z,79.77
2023-03-03T13:18:31.491Z,79.09
2023-03-03T13:21:15.597Z,79.38
2023-03-03T13:23:57.600Z,78.69
2023-03-03T13:26:38.521Z,80.10
2023-03-03T13:29:10.836Z,78.28
2023-03-03T13:31:41.627Z,80.13
2023-03-03T13:34:11.952Z,79.24
2023-03-03T13:36:50.844Z,77.62
2023-03-03T13:39:26.000Z,77.65
2023-03-03T13:42:37.454Z,78.10
2023-03-03T13:45:41.835Z,83.32
2023-03-03T13:48:38.499Z,86.32
2023-03-03T13:51:26.541Z,83.45
2023-03-03T13:54:08.034Z,81.10
2023-03-03T13:56:49.455Z,79.81
2023-03-03T13:59:36.934Z,78.85
2023-03-03T14:02:31.283Z,78.38
2023-03-03T14:05:17.747Z,78.50
2023-03-03T14:08:23.205Z,77.89
2023-03-03T14:11:15.355Z,80.27
2023-03-03T14:14:30.091Z,74.73
2023-03-03T14:17:12.832Z,78.66
2023-03-03T14:20:05.251Z,81.55
2023-03-03T14:22:51.869Z,79.51
2023-03-03T14:25:19.505Z,77.67
2023-03-03T14:27:49.088Z,76.83
2023-03-03T14:30:28.256Z,74.86
2023-03-03T14:33:16.523Z,74.76
2023-03-03T14:35:50.365Z,76.39
2023-03-03T14:38:23.571Z,77.08
2023-03-03T14:41:23.649Z,74.37
2023-03-03T14:43:58.328Z,73.77
2023-03-03T14:46:28.102Z,74.14
2023-03-03T14:48:58.377Z,74.10
2023-03-03T14:51:34.536Z,76.29
2023-03-03T14:54:01.557Z,75.90
2023-03-03T14:56:39.171Z,74.77
2023-03-03T14:59:14.678Z,75.80
2023-03-03T15:01:42.506Z,76.83
2023-03-03T15:04:16.013Z,74.52
2023-03-03T15:06:45.459Z,75.79
2023-03-03T15:09:24.368Z,75.51
2023-03-03T15:11:53.818Z,75.93
2023-03-03T15:14:28.938Z,76.02
2023-03-03T15:17:00.778Z,76.58
2023-03-03T15:19:44.783Z,78.42
2023-03-03T15:22:22.379Z,78.58
2023-03-03T15:25:09.090Z,78.96
2023-03-03T15:27:42.449Z,78.39
2023-03-03T15:30:16.076Z,80.28
2023-03-03T15:32:53.969Z,82.44
2023-03-03T15:35:26.882Z,82.70
2023-03-03T15:38:19.931Z,80.43
2023-03-03T15:40:49.827Z,80.74
2023-03-03T15:43:34.861Z,80.92
2023-03-03T15:46:20.290Z,81.25
2023-03-03T15:49:18.510Z,82.08
2023-03-03T15:52:03.929Z,82.72
2023-03-03T15:54:36.585Z,82.89
2023-03-03T15:57:57.716Z,83.38
2023-03-03T16:00:34.028Z,83.88
2023-03-03T16:03:24.381Z,83.99
2023-03-03T16:05:58.933Z,85.57
2023-03-03T16:08:55.295Z,85.43
2023-03-03T16:11:32.726Z,84.92
2023-03-03T16:14:02.726Z,85.85
2023-03-03T16:16:50.076Z,85.97
2023-03-03T16:19:35.062Z,86.28
2023-03-03T16:22:13.503Z,87.45
2023-03-03T16:24:56.481Z,88.77
2023-03-03T16:28:15.765Z,89.80
2023-03-03T16:30:58.110Z,89.24
2023-03-03T16:33:40.515Z,90.30
2023-03-03T16:36:54.130Z,88.69
2023-03-03T16:39:49.652Z,89.82
2023-03-03T16:42:36.015Z,90.20
2023-03-03T16:45:27.082Z,90.10
2023-03-03T16:47:59.829Z,90.46
2023-03-03T16:50:45.246Z,91.04
2023-03-03T16:53:23.619Z,91.56
2023-03-03T16:56:21.682Z,91.92
2023-03-03T16:58:59.037Z,93.84
2023-03-03T17:01:25.586Z,95.94
2023-03-03T17:03:58.468Z,96.29
2023-03-03T17:06:42.015Z,97.68
2023-03-03T17:09:31.531Z,99.17
2023-03-03T17:12:42.040Z,100.00
2023-03-03T17:15:22.594Z,100.00
2023-03-03T17:18:13.845Z,100.00
2023-03-03T17:20:47.777Z,100.00
2023-03-03T17:23:26.547Z,100.00
2023-03-03T17:26:27.482Z,100.00
2023-03-03T17:29:09.892Z,100.00
2023-03-03T17:32:08.736Z,100.00
2023-03-03T17:34:49.311Z,100.00
2023-03-03T17:37:33.384Z,100.00
2023-03-03T17:40:19.589Z,100.00
2023-03-03T17:43:14.966Z,100.00
2023-03-03T17:45:45.525Z,100.00
2023-03-03T17:48:21.211Z,100.00
2023-03-03T17:50:59.610Z,100.00
2023-03-03T17:54:03.042Z,100.00
2023-03-03T17:57:01.839Z,100.00
2023-03-03T17:59:56.674Z,100.00
2023-03-03T18:02:43.473Z,100.00
2023-03-03T18:05:25.558Z,100.00
2023-03-03T18:08:44.826Z,100.00
2023-03-03T18:11:40.825Z,100.00
2023-03-03T18:14:31.840Z,100.00
2023-03-03T18:16:58.358Z,100.00
2023-03-03T18:19:30.961Z,100.00
2023-03-03T18:22:17.981Z,100.00
2023-03-03T18:24:50.899Z,100.00
2023-03-03T18:27:40.158Z,100.00
2023-03-03T18:30:15.597Z,100.00
2023-03-03T18:32:44.950Z,100.00
2023-03-03T18:35:25.621Z,100.00
2023-03-03T18:37:52.759Z,100.00
2023-03-03T18:40:24.949Z,100.00
2023-03-03T18:42:51.724Z,100.00
2023-03-03T18:45:18.110Z,100.00
2023-03-03T18:48:03.650Z,100.00
2023-03-03T18:50:48.314Z,100.00
2023-03-03T18:53:17.540Z,100.00
2023-03-03T18:55:45.175Z,100.00
2023-03-03T18:58:14.424Z,100.00
2023-03-03T19:00:51.488Z,100.00
2023-03-03T19:03:55.997Z,100.00
2023-03-03T19:06:56.352Z,100.00
2023-03-03T19:09:47.945Z,100.00
2023-03-03T19:12:17.512Z,100.00
2023-03-03T19:14:48.784Z,100.00
2023-03-03T19:17:18.212Z,100.00
2023-03-03T19:20:09.998Z,100.00
2023-03-03T19:23:05.682Z,100.00
2023-03-03T19:25:33.414Z,100.00
2023-03-03T19:28:15.150Z,100.00
2023-03-03T19:31:09.281Z,100.00
2023-03-03T19:33:49.647Z,100.00
2023-03-03T19:36:38.067Z,100.00
2023-03-03T19:39:16.686Z,100.00
2023-03-03T19:42:01.242Z,100.00
2023-03-03T19:44:33.809Z,100.00
2023-03-03T19:47:11.512Z,100.00
2023-03-03T19:49:56.835Z,100.00
2023-03-03T19:52:43.677Z,100.00
2023-03-03T19:55:28.917Z,100.00
2023-03-03T19:58:44.859Z,100.00
2023-03-03T20:01:21.692Z,100.00
2023-03-03T20:04:27.119Z,100.00
2023-03-03T20:07:24.683Z,100.00
2023-03-03T20:10:15.764Z,100.00
2023-03-03T20:12:45.655Z,100.00
2023-03-03T20:15:19.286Z,100.00
2023-03-03T20:18:15.725Z,100.00
2023-03-03T20:21:05.365Z,100.00
2023-03-03T20:23:46.301Z,100.00
2023-03-03T20:26:22.193Z,100.00
2023-03-03T20:29:21.685Z,100.00
2023-03-03T20:32:14.298Z,100.00
2023-03-03T20:35:04.882Z,100.00
2023-03-03T20:37:38.674Z,100.00
2023-03-03T20:40:16.176Z,100.00
2023-03-03T20:42:52.776Z,100.00
2023-03-03T20:45:35.267Z,100.00
2023-03-03T20:48:17.037Z,100.00
2023-03-03T20:50:58.828Z,100.00
2023-03-03T20:53:48.596Z,100.00
2023-03-03T20:56:42.796Z,100.00
2023-03-03T20:59:32.276Z,100.00
2023-03-03T21:02:23.468Z,100.00
2023-03-03T21:05:17.560Z,100.00
2023-03-03T21:08:05.316Z,100.00
2023-03-03T21:10:36.310Z,100.00
2023-03-03T21:13:21.417Z,100.00
2023-03-03T21:16:00.938Z,100.00
2023-03-03T21:18:27.536Z,100.00
2023-03-03T21:20:53.951Z,100.00
2023-03-03T21:23:20.480Z,100.00
2023-03-03T21:25:55.558Z,100.00
2023-03-03T21:28:22.377Z,100.00
2023-03-03T21:31:10.594Z,100.00
2023-03-03T21:33:41.139Z,100.00
2023-03-03T21:36:08.616Z,100.00
2023-03-03T21:38:36.857Z,100.00
2023-03-03T21:41:04.731Z,100.00
2023-03-03T21:43:40.512Z,100.00
2023-03-03T21:46:07.617Z,100.00
2023-03-03T21:48:34.493Z,100.00
2023-03-03T21:51:01.778Z,100.00
2023-03-03T21:53:29.649Z,100.00
2023-03-03T21:55:56.403Z,100.00
2023-03-03T21:58:22.908Z,100.00
2023-03-03T22:00:49.318Z,100.00
2023-03-03T22:03:15.825Z,100.00
2023-03-03T22:05:42.724Z,100.00
2023-03-03T22:08:09.171Z,100.00
2023-03-03T22:10:35.685Z,100.00
2023-03-03T22:13:03.493Z,100.00
2023-03-03T22:15:30.418Z,100.00
2023-03-03T22:17:58.132Z,100.00
2023-03-03T22:20:24.606Z,100.00
2023-03-03T22:22:51.115Z,100.00
2023-03-03T22:25:18.540Z,100.00
2023-03-03T22:27:45.436Z,100.00
2023-03-03T22:30:12.401Z,100.00
2023-03-03T22:32:38.810Z,100.00
2023-03-03T22:35:05.713Z,100.00
2023-03-03T22:37:32.272Z,100.00
2023-03-03T22:39:58.853Z,100.00
2023-03-03T22:42:25.479Z,100.00
2023-03-03T22:44:51.919Z,100.00
2023-03-03T22:47:18.462Z,100.00
2023-03-03T22:49:44.954Z,100.00
2023-03-03T22:52:11.650Z,100.00
2023-03-03T22:54:38.259Z,100.00
2023-03-03T22:57:05.934Z,100.00
2023-03-03T22:59:32.520Z,100.00
2023-03-03T23:01:59.839Z,100.00
2023-03-03T23:04:26.464Z,100.00
2023-03-03T23:06:53.215Z,100.00
2023-03-03T23:09:19.672Z,100.00
2023-03-03T23:11:47.469Z,100.00
2023-03-03T23:14:13.937Z,100.00
2023-03-03T23:16:40.757Z,100.00
2023-03-03T23:19:07.509Z,100.00
2023-03-03T23:21:33.934Z,100.00
2023-03-03T23:24:00.373Z,100.00
2023-03-03T23:26:27.121Z,100.00
2023-03-03T23:28:53.598Z,100.00
2023-03-03T23:31:20.226Z,100.00
2023-03-03T23:33:46.741Z,100.00
2023-03-03T23:36:13.089Z,100.00
2023-03-03T23:38:40.802Z,100.00
2023-03-03T23:41:09.105Z,100.00
2023-03-03T23:43:35.753Z,100.00
2023-03-03T23:46:02.175Z,100.00
2023-03-03T23:48:29.478Z,100.00
2023-03-03T23:50:56.204Z,100.00
2023-03-03T23:53:22.719Z,100.00
2023-03-03T23:55:49.208Z,100.00
2023-03-03T23:58:15.769Z,100.00
